sensor_id;sensor_type;location;lat;lon;timestamp;temperature;humidity
14248;DHT22;7208;49.826;6.004;2023-06-26T00:02:03;16.30;99.90
14248;DHT22;7208;49.826;6.004;2023-06-26T00:04:28;16.30;99.90
14248;DHT22;7208;49.826;6.004;2023-06-26T00:06:54;16.30;99.90
14248;DHT22;7208;49.826;6.004;2023-06-26T00:09:20;16.20;99.90
14248;DHT22;7208;49.826;6.004;2023-06-26T00:11:45;16.20;99.90
14248;DHT22;7208;49.826;6.004;2023-06-26T00:14:11;16.30;99.90
14248;DHT22;7208;49.826;6.004;2023-06-26T00:16:36;16.30;99.90
14248;DHT22;7208;49.826;6.004;2023-06-26T00:19:02;16.30;99.90
14248;DHT22;7208;49.826;6.004;2023-06-26T00:21:28;16.40;99.90
14248;DHT22;7208;49.826;6.004;2023-06-26T00:23:53;16.30;99.90
14248;DHT22;7208;49.826;6.004;2023-06-26T00:26:19;16.20;99.90
14248;DHT22;7208;49.826;6.004;2023-06-26T00:28:45;16.20;99.90
14248;DHT22;7208;49.826;6.004;2023-06-26T00:31:10;16.20;99.90
14248;DHT22;7208;49.826;6.004;2023-06-26T00:33:36;16.20;99.90
14248;DHT22;7208;49.826;6.004;2023-06-26T00:36:02;16.20;99.90
14248;DHT22;7208;49.826;6.004;2023-06-26T00:38:27;16.20;99.90
14248;DHT22;7208;49.826;6.004;2023-06-26T00:40:53;16.30;99.90
14248;DHT22;7208;49.826;6.004;2023-06-26T00:43:20;16.30;99.90
14248;DHT22;7208;49.826;6.004;2023-06-26T00:45:45;16.30;99.90
14248;DHT22;7208;49.826;6.004;2023-06-26T00:48:11;16.20;99.90
14248;DHT22;7208;49.826;6.004;2023-06-26T00:50:37;16.10;99.90
14248;DHT22;7208;49.826;6.004;2023-06-26T00:53:03;16.10;99.90
14248;DHT22;7208;49.826;6.004;2023-06-26T00:55:29;16.10;99.90
14248;DHT22;7208;49.826;6.004;2023-06-26T00:57:55;16.00;99.90
14248;DHT22;7208;49.826;6.004;2023-06-26T01:00:21;16.00;99.90
14248;DHT22;7208;49.826;6.004;2023-06-26T01:02:47;15.90;99.90
14248;DHT22;7208;49.826;6.004;2023-06-26T01:05:13;15.90;99.90
14248;DHT22;7208;49.826;6.004;2023-06-26T01:07:49;16.00;99.90
14248;DHT22;7208;49.826;6.004;2023-06-26T01:10:15;15.90;99.90
14248;DHT22;7208;49.826;6.004;2023-06-26T01:12:41;15.80;99.90
14248;DHT22;7208;49.826;6.004;2023-06-26T01:15:07;15.80;99.90
14248;DHT22;7208;49.826;6.004;2023-06-26T01:17:33;15.70;99.90
14248;DHT22;7208;49.826;6.004;2023-06-26T01:20:00;15.70;99.90
14248;DHT22;7208;49.826;6.004;2023-06-26T01:22:48;15.80;99.90
14248;DHT22;7208;49.826;6.004;2023-06-26T01:25:23;15.70;99.90
14248;DHT22;7208;49.826;6.004;2023-06-26T01:27:55;15.70;99.90
14248;DHT22;7208;49.826;6.004;2023-06-26T01:30:21;15.70;99.90
14248;DHT22;7208;49.826;6.004;2023-06-26T01:32:48;15.60;99.90
14248;DHT22;7208;49.826;6.004;2023-06-26T01:35:16;15.60;99.90
14248;DHT22;7208;49.826;6.004;2023-06-26T01:37:42;15.60;99.90
14248;DHT22;7208;49.826;6.004;2023-06-26T01:40:08;15.60;99.90
14248;DHT22;7208;49.826;6.004;2023-06-26T01:42:35;15.60;99.90
14248;DHT22;7208;49.826;6.004;2023-06-26T01:45:15;15.30;99.90
14248;DHT22;7208;49.826;6.004;2023-06-26T01:47:48;15.60;99.90
14248;DHT22;7208;49.826;6.004;2023-06-26T01:50:18;15.60;99.90
14248;DHT22;7208;49.826;6.004;2023-06-26T01:53:17;15.60;99.90
14248;DHT22;7208;49.826;6.004;2023-06-26T01:56:03;15.60;99.90
14248;DHT22;7208;49.826;6.004;2023-06-26T01:58:31;15.50;99.90
14248;DHT22;7208;49.826;6.004;2023-06-26T02:00:57;15.50;99.90
14248;DHT22;7208;49.826;6.004;2023-06-26T02:03:23;15.50;99.90
14248;DHT22;7208;49.826;6.004;2023-06-26T02:05:50;15.50;99.90
14248;DHT22;7208;49.826;6.004;2023-06-26T02:08:16;15.40;99.90
14248;DHT22;7208;49.826;6.004;2023-06-26T02:10:42;15.40;99.90
14248;DHT22;7208;49.826;6.004;2023-06-26T02:13:07;15.40;99.90
14248;DHT22;7208;49.826;6.004;2023-06-26T02:15:33;15.40;99.90
14248;DHT22;7208;49.826;6.004;2023-06-26T02:17:58;15.40;99.90
14248;DHT22;7208;49.826;6.004;2023-06-26T02:20:24;15.40;99.90
14248;DHT22;7208;49.826;6.004;2023-06-26T02:22:50;15.40;99.90
14248;DHT22;7208;49.826;6.004;2023-06-26T02:25:15;15.40;99.90
14248;DHT22;7208;49.826;6.004;2023-06-26T02:27:42;15.40;99.90
14248;DHT22;7208;49.826;6.004;2023-06-26T02:30:08;15.40;99.90
14248;DHT22;7208;49.826;6.004;2023-06-26T02:32:34;15.30;99.90
14248;DHT22;7208;49.826;6.004;2023-06-26T02:35:00;15.30;99.90
14248;DHT22;7208;49.826;6.004;2023-06-26T02:37:26;15.30;99.90
14248;DHT22;7208;49.826;6.004;2023-06-26T02:39:51;15.40;99.90
14248;DHT22;7208;49.826;6.004;2023-06-26T02:42:17;15.50;99.90
14248;DHT22;7208;49.826;6.004;2023-06-26T02:44:43;15.40;99.90
14248;DHT22;7208;49.826;6.004;2023-06-26T02:47:08;15.30;99.90
14248;DHT22;7208;49.826;6.004;2023-06-26T02:49:34;15.10;99.90
14248;DHT22;7208;49.826;6.004;2023-06-26T02:51:59;15.10;99.90
14248;DHT22;7208;49.826;6.004;2023-06-26T02:54:25;15.20;99.90
14248;DHT22;7208;49.826;6.004;2023-06-26T02:56:51;15.10;99.90
14248;DHT22;7208;49.826;6.004;2023-06-26T02:59:17;15.10;99.90
14248;DHT22;7208;49.826;6.004;2023-06-26T03:01:43;15.10;99.90
14248;DHT22;7208;49.826;6.004;2023-06-26T03:04:09;15.20;99.90
14248;DHT22;7208;49.826;6.004;2023-06-26T03:06:35;15.20;99.90
14248;DHT22;7208;49.826;6.004;2023-06-26T03:09:01;15.20;99.90
14248;DHT22;7208;49.826;6.004;2023-06-26T03:11:27;15.30;99.90
14248;DHT22;7208;49.826;6.004;2023-06-26T03:13:53;15.50;99.90
14248;DHT22;7208;49.826;6.004;2023-06-26T03:16:19;15.80;99.90
14248;DHT22;7208;49.826;6.004;2023-06-26T03:18:44;15.90;99.90
14248;DHT22;7208;49.826;6.004;2023-06-26T03:21:10;16.30;99.90
14248;DHT22;7208;49.826;6.004;2023-06-26T03:23:36;16.80;99.90
14248;DHT22;7208;49.826;6.004;2023-06-26T03:26:01;17.30;99.90
14248;DHT22;7208;49.826;6.004;2023-06-26T03:28:27;17.50;99.90
14248;DHT22;7208;49.826;6.004;2023-06-26T03:30:53;17.60;99.90
14248;DHT22;7208;49.826;6.004;2023-06-26T03:33:18;17.70;99.90
14248;DHT22;7208;49.826;6.004;2023-06-26T03:35:44;17.70;99.90
14248;DHT22;7208;49.826;6.004;2023-06-26T03:38:10;17.80;99.90
14248;DHT22;7208;49.826;6.004;2023-06-26T03:40:35;18.10;99.90
14248;DHT22;7208;49.826;6.004;2023-06-26T03:43:01;18.30;99.90
14248;DHT22;7208;49.826;6.004;2023-06-26T03:45:26;18.20;99.90
14248;DHT22;7208;49.826;6.004;2023-06-26T03:47:52;18.00;99.90
14248;DHT22;7208;49.826;6.004;2023-06-26T03:50:18;17.90;99.90
14248;DHT22;7208;49.826;6.004;2023-06-26T03:52:44;17.90;99.90
14248;DHT22;7208;49.826;6.004;2023-06-26T03:55:10;17.80;99.90
14248;DHT22;7208;49.826;6.004;2023-06-26T03:57:36;17.80;99.90
14248;DHT22;7208;49.826;6.004;2023-06-26T04:00:02;17.80;99.90
14248;DHT22;7208;49.826;6.004;2023-06-26T04:02:34;17.70;99.90
14248;DHT22;7208;49.826;6.004;2023-06-26T04:04:59;17.70;99.90
14248;DHT22;7208;49.826;6.004;2023-06-26T04:07:25;17.70;99.90
14248;DHT22;7208;49.826;6.004;2023-06-26T04:09:51;17.60;99.90
14248;DHT22;7208;49.826;6.004;2023-06-26T04:12:17;17.60;99.90
14248;DHT22;7208;49.826;6.004;2023-06-26T04:14:42;17.60;99.90
14248;DHT22;7208;49.826;6.004;2023-06-26T04:17:08;17.60;99.90
14248;DHT22;7208;49.826;6.004;2023-06-26T04:19:34;17.70;99.90
14248;DHT22;7208;49.826;6.004;2023-06-26T04:22:01;17.70;99.90
14248;DHT22;7208;49.826;6.004;2023-06-26T04:24:27;17.70;99.90
14248;DHT22;7208;49.826;6.004;2023-06-26T04:26:52;17.70;99.90
14248;DHT22;7208;49.826;6.004;2023-06-26T04:29:18;17.80;99.90
14248;DHT22;7208;49.826;6.004;2023-06-26T04:31:44;17.80;99.90
14248;DHT22;7208;49.826;6.004;2023-06-26T04:34:13;17.80;99.90
14248;DHT22;7208;49.826;6.004;2023-06-26T04:36:38;17.70;99.90
14248;DHT22;7208;49.826;6.004;2023-06-26T04:39:05;17.70;99.90
14248;DHT22;7208;49.826;6.004;2023-06-26T04:41:30;17.70;99.90
14248;DHT22;7208;49.826;6.004;2023-06-26T04:43:56;17.60;99.90
14248;DHT22;7208;49.826;6.004;2023-06-26T04:46:21;17.60;99.90
14248;DHT22;7208;49.826;6.004;2023-06-26T04:48:47;17.70;99.90
14248;DHT22;7208;49.826;6.004;2023-06-26T04:51:13;17.90;99.90
14248;DHT22;7208;49.826;6.004;2023-06-26T04:53:38;17.90;99.90
14248;DHT22;7208;49.826;6.004;2023-06-26T04:56:04;18.00;99.90
14248;DHT22;7208;49.826;6.004;2023-06-26T04:58:30;18.00;99.90
14248;DHT22;7208;49.826;6.004;2023-06-26T05:00:55;18.00;99.90
14248;DHT22;7208;49.826;6.004;2023-06-26T05:03:22;18.00;99.90
14248;DHT22;7208;49.826;6.004;2023-06-26T05:05:48;18.00;99.90
14248;DHT22;7208;49.826;6.004;2023-06-26T05:08:15;18.10;99.90
14248;DHT22;7208;49.826;6.004;2023-06-26T05:10:41;18.20;99.90
14248;DHT22;7208;49.826;6.004;2023-06-26T05:13:06;18.40;99.90
14248;DHT22;7208;49.826;6.004;2023-06-26T05:15:32;18.50;99.90
14248;DHT22;7208;49.826;6.004;2023-06-26T05:17:58;18.50;99.90
14248;DHT22;7208;49.826;6.004;2023-06-26T05:20:23;18.60;99.90
14248;DHT22;7208;49.826;6.004;2023-06-26T05:22:50;18.50;99.90
14248;DHT22;7208;49.826;6.004;2023-06-26T05:25:18;18.50;99.90
14248;DHT22;7208;49.826;6.004;2023-06-26T05:27:44;18.40;99.90
14248;DHT22;7208;49.826;6.004;2023-06-26T05:30:10;18.30;99.90
14248;DHT22;7208;49.826;6.004;2023-06-26T05:32:38;18.30;99.90
14248;DHT22;7208;49.826;6.004;2023-06-26T05:35:06;18.40;99.90
14248;DHT22;7208;49.826;6.004;2023-06-26T05:37:32;18.40;99.90
14248;DHT22;7208;49.826;6.004;2023-06-26T05:39:59;18.50;99.90
14248;DHT22;7208;49.826;6.004;2023-06-26T05:42:27;18.60;99.90
14248;DHT22;7208;49.826;6.004;2023-06-26T05:44:53;18.80;99.90
14248;DHT22;7208;49.826;6.004;2023-06-26T05:47:19;18.90;99.90
14248;DHT22;7208;49.826;6.004;2023-06-26T05:49:45;19.10;99.90
14248;DHT22;7208;49.826;6.004;2023-06-26T05:52:11;19.20;99.90
14248;DHT22;7208;49.826;6.004;2023-06-26T05:54:37;19.20;99.90
14248;DHT22;7208;49.826;6.004;2023-06-26T05:57:03;19.20;99.90
14248;DHT22;7208;49.826;6.004;2023-06-26T05:59:32;19.20;99.90
14248;DHT22;7208;49.826;6.004;2023-06-26T06:01:58;19.10;99.90
14248;DHT22;7208;49.826;6.004;2023-06-26T06:04:24;19.10;99.90
14248;DHT22;7208;49.826;6.004;2023-06-26T06:06:49;19.00;99.90
14248;DHT22;7208;49.826;6.004;2023-06-26T06:09:15;19.00;99.90
14248;DHT22;7208;49.826;6.004;2023-06-26T06:11:41;19.00;99.90
14248;DHT22;7208;49.826;6.004;2023-06-26T06:14:07;19.00;99.90
14248;DHT22;7208;49.826;6.004;2023-06-26T06:16:32;19.00;99.90
14248;DHT22;7208;49.826;6.004;2023-06-26T06:18:58;19.00;99.90
14248;DHT22;7208;49.826;6.004;2023-06-26T06:21:23;19.00;99.90
14248;DHT22;7208;49.826;6.004;2023-06-26T06:23:49;19.00;99.90
14248;DHT22;7208;49.826;6.004;2023-06-26T06:26:15;19.10;99.90
14248;DHT22;7208;49.826;6.004;2023-06-26T06:28:40;19.10;99.90
14248;DHT22;7208;49.826;6.004;2023-06-26T06:31:06;19.20;99.90
14248;DHT22;7208;49.826;6.004;2023-06-26T06:33:32;19.10;99.90
14248;DHT22;7208;49.826;6.004;2023-06-26T06:35:58;19.10;99.90
14248;DHT22;7208;49.826;6.004;2023-06-26T06:38:24;19.10;99.90
14248;DHT22;7208;49.826;6.004;2023-06-26T06:40:50;19.10;99.90
14248;DHT22;7208;49.826;6.004;2023-06-26T06:43:16;19.20;99.90
14248;DHT22;7208;49.826;6.004;2023-06-26T06:45:41;19.30;99.90
14248;DHT22;7208;49.826;6.004;2023-06-26T06:48:07;19.30;99.90
14248;DHT22;7208;49.826;6.004;2023-06-26T06:50:33;19.30;99.90
14248;DHT22;7208;49.826;6.004;2023-06-26T06:52:58;19.30;99.90
14248;DHT22;7208;49.826;6.004;2023-06-26T06:55:24;19.30;99.90
14248;DHT22;7208;49.826;6.004;2023-06-26T06:57:51;19.30;99.90
14248;DHT22;7208;49.826;6.004;2023-06-26T07:00:17;19.40;99.90
14248;DHT22;7208;49.826;6.004;2023-06-26T07:02:44;19.40;99.90
14248;DHT22;7208;49.826;6.004;2023-06-26T07:05:10;19.40;99.90
14248;DHT22;7208;49.826;6.004;2023-06-26T07:07:36;19.40;99.90
14248;DHT22;7208;49.826;6.004;2023-06-26T07:10:08;19.40;99.90
14248;DHT22;7208;49.826;6.004;2023-06-26T07:12:35;19.40;99.90
14248;DHT22;7208;49.826;6.004;2023-06-26T07:15:01;19.50;99.90
14248;DHT22;7208;49.826;6.004;2023-06-26T07:17:28;19.50;99.90
14248;DHT22;7208;49.826;6.004;2023-06-26T07:19:53;19.60;99.90
14248;DHT22;7208;49.826;6.004;2023-06-26T07:22:19;19.70;99.90
14248;DHT22;7208;49.826;6.004;2023-06-26T07:24:46;19.70;99.90
14248;DHT22;7208;49.826;6.004;2023-06-26T07:27:16;19.70;99.90
14248;DHT22;7208;49.826;6.004;2023-06-26T07:29:43;19.70;99.90
14248;DHT22;7208;49.826;6.004;2023-06-26T07:32:09;19.80;99.90
14248;DHT22;7208;49.826;6.004;2023-06-26T07:34:35;19.90;99.90
14248;DHT22;7208;49.826;6.004;2023-06-26T07:37:00;20.00;99.90
14248;DHT22;7208;49.826;6.004;2023-06-26T07:39:26;20.10;99.90
14248;DHT22;7208;49.826;6.004;2023-06-26T07:41:52;20.50;99.90
14248;DHT22;7208;49.826;6.004;2023-06-26T07:44:17;23.10;99.90
14248;DHT22;7208;49.826;6.004;2023-06-26T07:46:43;24.70;99.90
14248;DHT22;7208;49.826;6.004;2023-06-26T07:49:10;25.30;99.90
14248;DHT22;7208;49.826;6.004;2023-06-26T07:51:36;25.50;99.90
14248;DHT22;7208;49.826;6.004;2023-06-26T07:54:01;25.60;99.80
14248;DHT22;7208;49.826;6.004;2023-06-26T07:56:27;25.50;99.40
14248;DHT22;7208;49.826;6.004;2023-06-26T07:58:53;25.50;99.90
14248;DHT22;7208;49.826;6.004;2023-06-26T08:01:18;25.60;98.40
14248;DHT22;7208;49.826;6.004;2023-06-26T08:03:44;25.30;99.30
14248;DHT22;7208;49.826;6.004;2023-06-26T08:06:09;24.90;98.90
14248;DHT22;7208;49.826;6.004;2023-06-26T08:08:35;24.70;96.80
14248;DHT22;7208;49.826;6.004;2023-06-26T08:11:01;24.60;98.20
14248;DHT22;7208;49.826;6.004;2023-06-26T08:13:28;24.60;95.80
14248;DHT22;7208;49.826;6.004;2023-06-26T08:15:53;24.70;96.60
14248;DHT22;7208;49.826;6.004;2023-06-26T08:18:20;24.50;95.30
14248;DHT22;7208;49.826;6.004;2023-06-26T08:20:45;24.20;94.70
14248;DHT22;7208;49.826;6.004;2023-06-26T08:23:11;23.80;95.30
14248;DHT22;7208;49.826;6.004;2023-06-26T08:25:37;23.60;97.70
14248;DHT22;7208;49.826;6.004;2023-06-26T08:28:02;23.40;97.30
14248;DHT22;7208;49.826;6.004;2023-06-26T08:30:28;22.90;99.70
14248;DHT22;7208;49.826;6.004;2023-06-26T08:32:55;22.80;99.50
14248;DHT22;7208;49.826;6.004;2023-06-26T08:35:21;22.50;99.70
14248;DHT22;7208;49.826;6.004;2023-06-26T08:37:46;22.40;99.50
14248;DHT22;7208;49.826;6.004;2023-06-26T08:40:12;22.60;99.50
14248;DHT22;7208;49.826;6.004;2023-06-26T08:42:41;22.50;99.10
14248;DHT22;7208;49.826;6.004;2023-06-26T08:45:07;22.30;99.90
14248;DHT22;7208;49.826;6.004;2023-06-26T08:47:34;22.10;99.40
14248;DHT22;7208;49.826;6.004;2023-06-26T08:50:13;22.10;99.90
14248;DHT22;7208;49.826;6.004;2023-06-26T08:52:53;22.00;99.30
14248;DHT22;7208;49.826;6.004;2023-06-26T08:55:20;21.90;99.90
14248;DHT22;7208;49.826;6.004;2023-06-26T08:57:52;22.30;99.90
14248;DHT22;7208;49.826;6.004;2023-06-26T09:00:21;22.70;99.40
14248;DHT22;7208;49.826;6.004;2023-06-26T09:02:47;22.60;99.90
14248;DHT22;7208;49.826;6.004;2023-06-26T09:05:12;22.50;97.80
14248;DHT22;7208;49.826;6.004;2023-06-26T09:07:38;22.30;98.90
14248;DHT22;7208;49.826;6.004;2023-06-26T09:10:04;22.40;98.10
14248;DHT22;7208;49.826;6.004;2023-06-26T09:12:31;22.50;98.20
14248;DHT22;7208;49.826;6.004;2023-06-26T09:14:56;22.50;95.50
14248;DHT22;7208;49.826;6.004;2023-06-26T09:17:29;22.10;95.70
14248;DHT22;7208;49.826;6.004;2023-06-26T09:19:55;22.10;97.50
14248;DHT22;7208;49.826;6.004;2023-06-26T09:22:21;22.20;99.20
14248;DHT22;7208;49.826;6.004;2023-06-26T09:24:48;22.20;96.40
14248;DHT22;7208;49.826;6.004;2023-06-26T09:27:13;22.50;95.60
14248;DHT22;7208;49.826;6.004;2023-06-26T09:29:39;22.60;95.90
14248;DHT22;7208;49.826;6.004;2023-06-26T09:32:07;22.70;96.00
14248;DHT22;7208;49.826;6.004;2023-06-26T09:34:33;22.70;97.30
14248;DHT22;7208;49.826;6.004;2023-06-26T09:36:59;22.80;96.10
14248;DHT22;7208;49.826;6.004;2023-06-26T09:39:30;22.80;95.30
14248;DHT22;7208;49.826;6.004;2023-06-26T09:41:56;23.00;99.10
14248;DHT22;7208;49.826;6.004;2023-06-26T09:44:22;23.00;97.60
14248;DHT22;7208;49.826;6.004;2023-06-26T09:46:48;22.70;99.10
14248;DHT22;7208;49.826;6.004;2023-06-26T09:49:14;23.30;98.50
14248;DHT22;7208;49.826;6.004;2023-06-26T09:51:41;23.70;95.90
14248;DHT22;7208;49.826;6.004;2023-06-26T09:54:08;24.00;93.30
14248;DHT22;7208;49.826;6.004;2023-06-26T09:56:34;24.10;92.20
14248;DHT22;7208;49.826;6.004;2023-06-26T09:59:02;24.00;91.80
14248;DHT22;7208;49.826;6.004;2023-06-26T10:01:29;23.90;85.30
14248;DHT22;7208;49.826;6.004;2023-06-26T10:03:55;23.90;85.90
14248;DHT22;7208;49.826;6.004;2023-06-26T10:06:45;23.70;81.90
14248;DHT22;7208;49.826;6.004;2023-06-26T10:09:11;23.50;80.80
14248;DHT22;7208;49.826;6.004;2023-06-26T10:11:48;23.50;81.20
14248;DHT22;7208;49.826;6.004;2023-06-26T10:14:16;23.70;83.40
14248;DHT22;7208;49.826;6.004;2023-06-26T10:16:43;23.70;83.60
14248;DHT22;7208;49.826;6.004;2023-06-26T10:19:10;23.60;87.90
14248;DHT22;7208;49.826;6.004;2023-06-26T10:21:38;23.80;85.50
14248;DHT22;7208;49.826;6.004;2023-06-26T10:24:06;24.00;80.40
14248;DHT22;7208;49.826;6.004;2023-06-26T10:26:35;23.80;76.90
14248;DHT22;7208;49.826;6.004;2023-06-26T10:29:05;23.50;77.50
14248;DHT22;7208;49.826;6.004;2023-06-26T10:31:32;23.20;78.50
14248;DHT22;7208;49.826;6.004;2023-06-26T10:33:59;23.10;76.30
14248;DHT22;7208;49.826;6.004;2023-06-26T10:36:30;23.10;76.10
14248;DHT22;7208;49.826;6.004;2023-06-26T10:39:15;23.10;73.90
14248;DHT22;7208;49.826;6.004;2023-06-26T10:41:42;23.30;76.80
14248;DHT22;7208;49.826;6.004;2023-06-26T10:44:14;23.50;76.70
14248;DHT22;7208;49.826;6.004;2023-06-26T10:46:55;23.80;74.20
14248;DHT22;7208;49.826;6.004;2023-06-26T10:49:27;23.90;75.00
14248;DHT22;7208;49.826;6.004;2023-06-26T10:51:53;23.80;72.00
14248;DHT22;7208;49.826;6.004;2023-06-26T10:54:21;23.80;73.60
14248;DHT22;7208;49.826;6.004;2023-06-26T10:56:48;23.50;73.00
14248;DHT22;7208;49.826;6.004;2023-06-26T10:59:34;23.60;73.80
14248;DHT22;7208;49.826;6.004;2023-06-26T11:02:06;23.50;77.50
14248;DHT22;7208;49.826;6.004;2023-06-26T11:04:45;23.60;73.50
14248;DHT22;7208;49.826;6.004;2023-06-26T11:07:24;23.60;76.50
14248;DHT22;7208;49.826;6.004;2023-06-26T11:09:57;23.80;77.20
14248;DHT22;7208;49.826;6.004;2023-06-26T11:12:45;23.70;77.00
14248;DHT22;7208;49.826;6.004;2023-06-26T11:15:17;23.80;78.30
14248;DHT22;7208;49.826;6.004;2023-06-26T11:17:44;23.60;78.20
14248;DHT22;7208;49.826;6.004;2023-06-26T11:20:12;23.40;75.50
14248;DHT22;7208;49.826;6.004;2023-06-26T11:22:39;23.30;79.50
14248;DHT22;7208;49.826;6.004;2023-06-26T11:25:06;23.20;80.10
14248;DHT22;7208;49.826;6.004;2023-06-26T11:27:42;23.10;76.80
14248;DHT22;7208;49.826;6.004;2023-06-26T11:30:09;23.20;76.70
14248;DHT22;7208;49.826;6.004;2023-06-26T11:32:39;23.20;78.60
14248;DHT22;7208;49.826;6.004;2023-06-26T11:35:05;23.10;79.10
14248;DHT22;7208;49.826;6.004;2023-06-26T11:37:32;23.10;81.50
14248;DHT22;7208;49.826;6.004;2023-06-26T11:39:58;23.30;78.20
14248;DHT22;7208;49.826;6.004;2023-06-26T11:42:23;23.30;76.90
14248;DHT22;7208;49.826;6.004;2023-06-26T11:44:51;23.30;73.80
14248;DHT22;7208;49.826;6.004;2023-06-26T11:47:19;23.20;74.30
14248;DHT22;7208;49.826;6.004;2023-06-26T11:49:47;23.20;75.90
14248;DHT22;7208;49.826;6.004;2023-06-26T11:52:13;23.30;75.70
14248;DHT22;7208;49.826;6.004;2023-06-26T11:54:39;23.50;77.10
14248;DHT22;7208;49.826;6.004;2023-06-26T11:57:05;23.60;76.60
14248;DHT22;7208;49.826;6.004;2023-06-26T11:59:38;23.70;72.20
14248;DHT22;7208;49.826;6.004;2023-06-26T12:02:06;23.80;76.30
14248;DHT22;7208;49.826;6.004;2023-06-26T12:04:32;23.90;74.20
14248;DHT22;7208;49.826;6.004;2023-06-26T12:07:02;24.00;76.20
14248;DHT22;7208;49.826;6.004;2023-06-26T12:09:30;24.00;72.70
14248;DHT22;7208;49.826;6.004;2023-06-26T12:11:59;23.90;75.20
14248;DHT22;7208;49.826;6.004;2023-06-26T12:14:26;23.80;75.40
14248;DHT22;7208;49.826;6.004;2023-06-26T12:16:54;23.80;76.40
14248;DHT22;7208;49.826;6.004;2023-06-26T12:19:26;23.90;76.90
14248;DHT22;7208;49.826;6.004;2023-06-26T12:21:52;24.00;79.90
14248;DHT22;7208;49.826;6.004;2023-06-26T12:24:22;23.80;74.30
14248;DHT22;7208;49.826;6.004;2023-06-26T12:26:55;23.70;74.30
14248;DHT22;7208;49.826;6.004;2023-06-26T12:29:33;23.50;78.00
14248;DHT22;7208;49.826;6.004;2023-06-26T12:31:59;23.80;76.50
14248;DHT22;7208;49.826;6.004;2023-06-26T12:34:33;23.90;74.90
14248;DHT22;7208;49.826;6.004;2023-06-26T12:37:02;23.90;75.50
14248;DHT22;7208;49.826;6.004;2023-06-26T12:39:28;23.70;72.80
14248;DHT22;7208;49.826;6.004;2023-06-26T12:41:57;23.80;73.80
14248;DHT22;7208;49.826;6.004;2023-06-26T12:44:29;24.00;73.90
14248;DHT22;7208;49.826;6.004;2023-06-26T12:47:00;24.10;73.40
14248;DHT22;7208;49.826;6.004;2023-06-26T12:52:03;23.70;74.90
14248;DHT22;7208;49.826;6.004;2023-06-26T12:54:29;23.90;73.90
14248;DHT22;7208;49.826;6.004;2023-06-26T12:56:55;23.90;71.10
14248;DHT22;7208;49.826;6.004;2023-06-26T12:59:21;24.00;70.60
14248;DHT22;7208;49.826;6.004;2023-06-26T13:01:47;24.10;69.70
14248;DHT22;7208;49.826;6.004;2023-06-26T13:04:12;24.30;71.60
14248;DHT22;7208;49.826;6.004;2023-06-26T13:06:38;24.30;71.30
14248;DHT22;7208;49.826;6.004;2023-06-26T13:09:04;23.90;67.70
14248;DHT22;7208;49.826;6.004;2023-06-26T13:11:31;23.60;71.50
14248;DHT22;7208;49.826;6.004;2023-06-26T13:13:57;23.80;69.10
14248;DHT22;7208;49.826;6.004;2023-06-26T13:16:22;24.00;72.90
14248;DHT22;7208;49.826;6.004;2023-06-26T13:18:48;23.60;71.30
14248;DHT22;7208;49.826;6.004;2023-06-26T13:21:14;23.50;72.40
14248;DHT22;7208;49.826;6.004;2023-06-26T13:23:40;23.80;68.90
14248;DHT22;7208;49.826;6.004;2023-06-26T13:26:06;23.70;72.30
14248;DHT22;7208;49.826;6.004;2023-06-26T13:28:32;23.80;69.30
14248;DHT22;7208;49.826;6.004;2023-06-26T13:30:58;24.20;68.30
14248;DHT22;7208;49.826;6.004;2023-06-26T13:33:23;24.30;68.70
14248;DHT22;7208;49.826;6.004;2023-06-26T13:35:51;24.50;68.70
14248;DHT22;7208;49.826;6.004;2023-06-26T13:38:19;24.70;69.20
14248;DHT22;7208;49.826;6.004;2023-06-26T13:40:45;24.60;65.20
14248;DHT22;7208;49.826;6.004;2023-06-26T13:43:14;24.60;65.90
14248;DHT22;7208;49.826;6.004;2023-06-26T13:45:40;24.80;67.70
14248;DHT22;7208;49.826;6.004;2023-06-26T13:48:06;24.50;67.70
14248;DHT22;7208;49.826;6.004;2023-06-26T13:50:32;24.00;67.90
14248;DHT22;7208;49.826;6.004;2023-06-26T13:52:58;23.60;68.70
14248;DHT22;7208;49.826;6.004;2023-06-26T13:55:25;24.00;71.00
14248;DHT22;7208;49.826;6.004;2023-06-26T13:57:59;24.60;66.20
14248;DHT22;7208;49.826;6.004;2023-06-26T14:00:27;24.70;66.50
14248;DHT22;7208;49.826;6.004;2023-06-26T14:02:52;24.60;65.00
14248;DHT22;7208;49.826;6.004;2023-06-26T14:05:18;24.20;63.60
14248;DHT22;7208;49.826;6.004;2023-06-26T14:07:44;24.10;66.50
14248;DHT22;7208;49.826;6.004;2023-06-26T14:10:10;24.60;66.10
14248;DHT22;7208;49.826;6.004;2023-06-26T14:12:36;24.70;63.30
14248;DHT22;7208;49.826;6.004;2023-06-26T14:15:01;24.00;64.10
14248;DHT22;7208;49.826;6.004;2023-06-26T14:17:28;23.40;67.10
14248;DHT22;7208;49.826;6.004;2023-06-26T14:19:54;23.50;70.40
14248;DHT22;7208;49.826;6.004;2023-06-26T14:22:20;24.20;69.30
14248;DHT22;7208;49.826;6.004;2023-06-26T14:24:48;24.50;68.30
14248;DHT22;7208;49.826;6.004;2023-06-26T14:27:14;24.50;64.80
14248;DHT22;7208;49.826;6.004;2023-06-26T14:29:40;24.20;63.30
14248;DHT22;7208;49.826;6.004;2023-06-26T14:32:06;24.00;65.40
14248;DHT22;7208;49.826;6.004;2023-06-26T14:34:32;24.30;67.10
14248;DHT22;7208;49.826;6.004;2023-06-26T14:36:58;24.10;65.10
14248;DHT22;7208;49.826;6.004;2023-06-26T14:39:23;23.80;64.20
14248;DHT22;7208;49.826;6.004;2023-06-26T14:41:49;23.40;63.90
14248;DHT22;7208;49.826;6.004;2023-06-26T14:44:15;23.30;64.70
14248;DHT22;7208;49.826;6.004;2023-06-26T14:46:41;23.40;65.70
14248;DHT22;7208;49.826;6.004;2023-06-26T14:49:07;23.80;64.50
14248;DHT22;7208;49.826;6.004;2023-06-26T14:51:33;23.90;66.70
14248;DHT22;7208;49.826;6.004;2023-06-26T14:53:59;24.00;64.50
14248;DHT22;7208;49.826;6.004;2023-06-26T14:56:25;24.20;63.30
14248;DHT22;7208;49.826;6.004;2023-06-26T14:58:51;23.60;62.60
14248;DHT22;7208;49.826;6.004;2023-06-26T15:01:18;23.10;64.50
14248;DHT22;7208;49.826;6.004;2023-06-26T15:03:46;23.00;66.30
14248;DHT22;7208;49.826;6.004;2023-06-26T15:06:11;23.60;66.90
14248;DHT22;7208;49.826;6.004;2023-06-26T15:08:37;24.20;61.50
14248;DHT22;7208;49.826;6.004;2023-06-26T15:11:03;24.50;63.60
14248;DHT22;7208;49.826;6.004;2023-06-26T15:13:28;24.30;63.40
14248;DHT22;7208;49.826;6.004;2023-06-26T15:15:54;23.80;61.40
14248;DHT22;7208;49.826;6.004;2023-06-26T15:18:20;23.40;62.60
14248;DHT22;7208;49.826;6.004;2023-06-26T15:20:45;23.30;63.80
14248;DHT22;7208;49.826;6.004;2023-06-26T15:23:11;23.20;63.80
14248;DHT22;7208;49.826;6.004;2023-06-26T15:25:37;23.50;65.20
14248;DHT22;7208;49.826;6.004;2023-06-26T15:28:06;24.20;63.10
14248;DHT22;7208;49.826;6.004;2023-06-26T15:30:33;24.70;62.20
14248;DHT22;7208;49.826;6.004;2023-06-26T15:32:58;24.90;60.80
14248;DHT22;7208;49.826;6.004;2023-06-26T15:35:24;24.50;61.40
14248;DHT22;7208;49.826;6.004;2023-06-26T15:37:50;24.10;62.60
14248;DHT22;7208;49.826;6.004;2023-06-26T15:40:16;24.40;58.30
14248;DHT22;7208;49.826;6.004;2023-06-26T15:42:49;24.70;57.40
14248;DHT22;7208;49.826;6.004;2023-06-26T15:45:16;24.60;58.80
14248;DHT22;7208;49.826;6.004;2023-06-26T15:47:43;24.10;57.30